PWSweather.com
Personal Weather Stations
Station Observations

PoschiavoCH

Lat: 46.31962499999999, Lon: 10.066551000000004

Elevation: 3517

Station Type: WH 1080

http://www.meteoposchiavo.com

High Low Average
Temperature 77.0°F25.0°C 54.0°F12.2°C 64.0°F17.8°C
Dew Point 62.9°F17.2°C 51.5°F10.8°C 56.8°F13.8°C
Winds 4.6 mph 7.4 kmh Calm Calm 1.0 mph SE1.6 kmh SE
Wind Gusts 6.9 mph11.1 kmh -- 1.0 mph1.6 kmh
Humidity 98% 58% 79%
Pressure 26.66 in902.8 mb 26.52 in898.1 mb -
Precipitation 0.04 in1.0 mm - -
Hour Temp Dew Point Humidity Winds Wind Gusts Pressure Precip Precip Rate Daily Precip Total
12:00 AM 57.0°F13.9°C 55.9°F13.3°C 96% Calm Calm -- 26.66 in902.8 mb - 0.04 in1.0 mm 0.04 in1.0 mm
12:10 AM 57.0°F13.9°C 55.9°F13.3°C 96% Calm Calm -- 26.65 in902.5 mb - 0.03 in0.8 mm 0.04 in1.0 mm
12:15 AM 57.0°F13.9°C 56.2°F13.4°C 97% Calm Calm -- 26.65 in902.5 mb - 0.02 in0.5 mm 0.04 in1.0 mm
12:20 AM 57.0°F13.9°C 56.2°F13.4°C 97% Calm Calm -- 26.64 in902.1 mb - 0.01 in0.3 mm 0.04 in1.0 mm
12:25 AM 57.0°F13.9°C 55.9°F13.3°C 96% Calm Calm -- 26.64 in902.1 mb - 0.00 in0.0 mm 0.04 in1.0 mm
12:30 AM 57.0°F13.9°C 55.9°F13.3°C 96% Calm Calm -- 26.64 in902.1 mb - 0.00 in0.0 mm 0.04 in1.0 mm
12:35 AM 57.0°F13.9°C 55.9°F13.3°C 96% Calm Calm -- 26.64 in902.1 mb - 0.00 in0.0 mm 0.04 in1.0 mm
12:40 AM 57.0°F13.9°C 55.9°F13.3°C 96% Calm Calm -- 26.62 in901.5 mb - 0.00 in0.0 mm 0.04 in1.0 mm
12:45 AM 57.0°F13.9°C 55.9°F13.3°C 96% Calm Calm -- 26.62 in901.5 mb - 0.00 in0.0 mm 0.04 in1.0 mm
12:50 AM 57.0°F13.9°C 55.9°F13.3°C 96% Calm Calm -- 26.62 in901.5 mb - 0.00 in0.0 mm 0.04 in1.0 mm
12:55 AM 56.0°F13.3°C 54.9°F12.7°C 96% Calm Calm -- 26.62 in901.5 mb - 0.00 in0.0 mm 0.04 in1.0 mm
01:00 AM 57.0°F13.9°C 55.9°F13.3°C 96% Calm Calm -- 26.61 in901.1 mb - 0.00 in0.0 mm 0.04 in1.0 mm
01:10 AM 57.0°F13.9°C 56.2°F13.4°C 97% Calm Calm -- 26.62 in901.5 mb - 0.00 in0.0 mm 0.04 in1.0 mm
01:15 AM 56.0°F13.3°C 55.2°F12.9°C 97% Calm Calm -- 26.61 in901.1 mb - 0.00 in0.0 mm 0.04 in1.0 mm
01:20 AM 56.0°F13.3°C 55.2°F12.9°C 97% Calm Calm -- 26.62 in901.5 mb - 0.00 in0.0 mm 0.04 in1.0 mm
01:25 AM 56.0°F13.3°C 55.2°F12.9°C 97% Calm Calm -- 26.61 in901.1 mb - 0.00 in0.0 mm 0.04 in1.0 mm
01:30 AM 56.0°F13.3°C 55.2°F12.9°C 97% Calm Calm 1.2 mph1.9 kmh 26.62 in901.5 mb - 0.00 in0.0 mm 0.04 in1.0 mm
01:35 AM 56.0°F13.3°C 55.2°F12.9°C 97% Calm Calm -- 26.61 in901.1 mb - 0.00 in0.0 mm 0.04 in1.0 mm
01:40 AM 56.0°F13.3°C 55.2°F12.9°C 97% Calm Calm -- 26.61 in901.1 mb - 0.00 in0.0 mm 0.04 in1.0 mm
01:45 AM 56.0°F13.3°C 55.2°F12.9°C 97% Calm Calm -- 26.60 in900.8 mb - 0.00 in0.0 mm 0.04 in1.0 mm
01:50 AM 56.0°F13.3°C 55.2°F12.9°C 97% Calm Calm -- 26.61 in901.1 mb - 0.00 in0.0 mm 0.04 in1.0 mm
01:55 AM 55.0°F12.8°C 54.2°F12.3°C 97% Calm Calm -- 26.61 in901.1 mb - 0.00 in0.0 mm 0.04 in1.0 mm
02:00 AM 55.0°F12.8°C 54.4°F12.4°C 98% Calm Calm -- 26.61 in901.1 mb - 0.00 in0.0 mm 0.04 in1.0 mm
02:10 AM 55.0°F12.8°C 54.4°F12.4°C 98% Calm Calm -- 26.60 in900.8 mb - 0.00 in0.0 mm 0.04 in1.0 mm
02:15 AM 55.0°F12.8°C 54.4°F12.4°C 98% Calm Calm -- 26.60 in900.8 mb - 0.00 in0.0 mm 0.04 in1.0 mm
02:20 AM 56.0°F13.3°C 55.2°F12.9°C 97% Calm Calm -- 26.60 in900.8 mb - 0.00 in0.0 mm 0.04 in1.0 mm
02:25 AM 55.0°F12.8°C 54.2°F12.3°C 97% Calm Calm -- 26.60 in900.8 mb - 0.00 in0.0 mm 0.04 in1.0 mm
02:30 AM 55.0°F12.8°C 54.2°F12.3°C 97% Calm Calm -- 26.59 in900.4 mb - 0.00 in0.0 mm 0.04 in1.0 mm
02:35 AM 55.0°F12.8°C 54.2°F12.3°C 97% Calm Calm -- 26.60 in900.8 mb - 0.00 in0.0 mm 0.04 in1.0 mm
02:40 AM 55.0°F12.8°C 54.2°F12.3°C 97% Calm Calm -- 26.59 in900.4 mb - 0.00 in0.0 mm 0.04 in1.0 mm
02:45 AM 55.0°F12.8°C 54.2°F12.3°C 97% Calm Calm -- 26.60 in900.8 mb - 0.00 in0.0 mm 0.04 in1.0 mm
02:50 AM 55.0°F12.8°C 54.2°F12.3°C 97% Calm Calm -- 26.60 in900.8 mb - 0.00 in0.0 mm 0.04 in1.0 mm
02:55 AM 55.0°F12.8°C 54.2°F12.3°C 97% Calm Calm -- 26.59 in900.4 mb - 0.00 in0.0 mm 0.04 in1.0 mm
03:00 AM 55.0°F12.8°C 54.2°F12.3°C 97% Calm Calm -- 26.59 in900.4 mb - 0.00 in0.0 mm 0.04 in1.0 mm
03:10 AM 55.0°F12.8°C 54.2°F12.3°C 97% Calm Calm -- 26.60 in900.8 mb - 0.00 in0.0 mm 0.04 in1.0 mm
03:15 AM 55.0°F12.8°C 54.2°F12.3°C 97% Calm Calm -- 26.59 in900.4 mb - 0.00 in0.0 mm 0.04 in1.0 mm
03:20 AM 55.0°F12.8°C 54.2°F12.3°C 97% Calm Calm -- 26.59 in900.4 mb - 0.00 in0.0 mm 0.04 in1.0 mm
03:25 AM 55.0°F12.8°C 54.2°F12.3°C 97% Calm Calm -- 26.59 in900.4 mb - 0.00 in0.0 mm 0.04 in1.0 mm
03:30 AM 55.0°F12.8°C 54.2°F12.3°C 97% Calm Calm -- 26.60 in900.8 mb - 0.00 in0.0 mm 0.04 in1.0 mm
03:35 AM 55.0°F12.8°C 54.2°F12.3°C 97% Calm Calm -- 26.59 in900.4 mb - 0.00 in0.0 mm 0.04 in1.0 mm
03:40 AM 60.0°F15.6°C 55.8°F13.2°C 86% Calm Calm -- 26.65 in902.5 mb - 0.00 in0.0 mm 0.04 in1.0 mm
03:45 AM 55.0°F12.8°C 53.3°F11.8°C 94% Calm Calm -- 26.59 in900.4 mb - 0.00 in0.0 mm 0.04 in1.0 mm
03:50 AM 55.0°F12.8°C 54.2°F12.3°C 97% Calm Calm 1.2 mph1.9 kmh 26.60 in900.8 mb - 0.00 in0.0 mm 0.04 in1.0 mm
03:55 AM 54.7°F12.6°C 53.8°F12.1°C 97% Calm Calm 1.2 mph1.9 kmh 26.60 in900.8 mb - 0.00 in0.0 mm 0.04 in1.0 mm
04:00 AM 54.0°F12.2°C 53.2°F11.8°C 97% Calm Calm -- 26.59 in900.4 mb - 0.00 in0.0 mm 0.04 in1.0 mm
04:10 AM 54.0°F12.2°C 53.2°F11.8°C 97% Calm Calm -- 26.59 in900.4 mb - 0.00 in0.0 mm 0.04 in1.0 mm
04:15 AM 55.0°F12.8°C 54.2°F12.3°C 97% Calm Calm -- 26.59 in900.4 mb - 0.00 in0.0 mm 0.04 in1.0 mm
04:20 AM 54.0°F12.2°C 53.2°F11.8°C 97% Calm Calm -- 26.59 in900.4 mb - 0.00 in0.0 mm 0.04 in1.0 mm
04:25 AM 54.0°F12.2°C 53.2°F11.8°C 97% Calm Calm -- 26.59 in900.4 mb - 0.00 in0.0 mm 0.04 in1.0 mm
04:30 AM 54.0°F12.2°C 53.2°F11.8°C 97% Calm Calm -- 26.59 in900.4 mb - 0.00 in0.0 mm 0.04 in1.0 mm
04:35 AM 54.0°F12.2°C 53.2°F11.8°C 97% Calm Calm -- 26.59 in900.4 mb - 0.00 in0.0 mm 0.04 in1.0 mm
04:40 AM 54.0°F12.2°C 53.2°F11.8°C 97% Calm Calm -- 26.59 in900.4 mb - 0.00 in0.0 mm 0.04 in1.0 mm
04:45 AM 54.0°F12.2°C 53.4°F11.9°C 98% Calm Calm -- 26.59 in900.4 mb - 0.00 in0.0 mm 0.04 in1.0 mm
04:50 AM 54.0°F12.2°C 53.4°F11.9°C 98% Calm Calm -- 26.59 in900.4 mb - 0.00 in0.0 mm 0.04 in1.0 mm
04:55 AM 54.0°F12.2°C 53.4°F11.9°C 98% Calm Calm -- 26.59 in900.4 mb - 0.00 in0.0 mm 0.04 in1.0 mm
05:00 AM 54.0°F12.2°C 53.2°F11.8°C 97% Calm Calm -- 26.60 in900.8 mb - 0.00 in0.0 mm 0.04 in1.0 mm
05:10 AM 54.0°F12.2°C 53.2°F11.8°C 97% Calm Calm -- 26.60 in900.8 mb - 0.00 in0.0 mm 0.04 in1.0 mm
05:15 AM 54.0°F12.2°C 53.4°F11.9°C 98% Calm Calm -- 26.59 in900.4 mb - 0.00 in0.0 mm 0.04 in1.0 mm
05:20 AM 54.0°F12.2°C 53.4°F11.9°C 98% Calm Calm -- 26.60 in900.8 mb - 0.00 in0.0 mm 0.04 in1.0 mm
05:25 AM 54.0°F12.2°C 53.4°F11.9°C 98% Calm Calm -- 26.60 in900.8 mb - 0.00 in0.0 mm 0.04 in1.0 mm
05:30 AM 54.0°F12.2°C 53.4°F11.9°C 98% Calm Calm -- 26.60 in900.8 mb - 0.00 in0.0 mm 0.04 in1.0 mm
05:35 AM 54.0°F12.2°C 53.4°F11.9°C 98% Calm Calm -- 26.60 in900.8 mb - 0.00 in0.0 mm 0.04 in1.0 mm
05:40 AM 54.0°F12.2°C 53.4°F11.9°C 98% Calm Calm -- 26.59 in900.4 mb - 0.00 in0.0 mm 0.04 in1.0 mm
05:45 AM 54.0°F12.2°C 53.4°F11.9°C 98% Calm Calm -- 26.60 in900.8 mb - 0.00 in0.0 mm 0.04 in1.0 mm
05:50 AM 54.0°F12.2°C 53.4°F11.9°C 98% Calm Calm -- 26.59 in900.4 mb - 0.00 in0.0 mm 0.04 in1.0 mm
05:55 AM 54.0°F12.2°C 53.4°F11.9°C 98% Calm Calm -- 26.58 in900.1 mb - 0.00 in0.0 mm 0.04 in1.0 mm
06:00 AM 54.0°F12.2°C 53.4°F11.9°C 98% Calm Calm -- 26.60 in900.8 mb - 0.00 in0.0 mm 0.04 in1.0 mm
06:10 AM 54.0°F12.2°C 53.2°F11.8°C 97% Calm Calm -- 26.59 in900.4 mb - 0.00 in0.0 mm 0.04 in1.0 mm
06:15 AM 55.0°F12.8°C 54.2°F12.3°C 97% Calm Calm -- 26.60 in900.8 mb - 0.00 in0.0 mm 0.04 in1.0 mm
06:20 AM 55.0°F12.8°C 54.2°F12.3°C 97% Calm Calm -- 26.59 in900.4 mb - 0.00 in0.0 mm 0.04 in1.0 mm
06:25 AM 55.0°F12.8°C 54.2°F12.3°C 97% Calm Calm -- 26.59 in900.4 mb - 0.00 in0.0 mm 0.04 in1.0 mm
06:30 AM 54.0°F12.2°C 53.2°F11.8°C 97% Calm Calm -- 26.60 in900.8 mb - 0.00 in0.0 mm 0.04 in1.0 mm
06:35 AM 55.0°F12.8°C 54.2°F12.3°C 97% Calm Calm -- 26.59 in900.4 mb - 0.00 in0.0 mm 0.04 in1.0 mm
06:40 AM 55.0°F12.8°C 54.2°F12.3°C 97% Calm Calm -- 26.60 in900.8 mb - 0.00 in0.0 mm 0.04 in1.0 mm
06:45 AM 55.0°F12.8°C 54.2°F12.3°C 97% Calm Calm -- 26.60 in900.8 mb - 0.00 in0.0 mm 0.04 in1.0 mm
06:50 AM 55.0°F12.8°C 54.2°F12.3°C 97% Calm Calm -- 26.60 in900.8 mb - 0.00 in0.0 mm 0.04 in1.0 mm
06:55 AM 55.0°F12.8°C 53.9°F12.2°C 96% Calm Calm -- 26.60 in900.8 mb - 0.00 in0.0 mm 0.04 in1.0 mm
07:00 AM 56.0°F13.3°C 54.9°F12.7°C 96% Calm Calm -- 26.59 in900.4 mb - 0.00 in0.0 mm 0.04 in1.0 mm
07:10 AM 56.0°F13.3°C 54.6°F12.6°C 95% Calm Calm -- 26.60 in900.8 mb - 0.00 in0.0 mm 0.04 in1.0 mm
07:15 AM 57.0°F13.9°C 55.6°F13.1°C 95% Calm Calm -- 26.60 in900.8 mb - 0.00 in0.0 mm 0.04 in1.0 mm
07:20 AM 57.3°F14.1°C 55.9°F13.3°C 95% Calm Calm -- 26.60 in900.8 mb - 0.00 in0.0 mm 0.04 in1.0 mm
07:25 AM 58.0°F14.4°C 56.6°F13.7°C 95% Calm Calm -- 26.60 in900.8 mb - 0.00 in0.0 mm 0.04 in1.0 mm
07:30 AM 59.0°F15.0°C 57.6°F14.2°C 95% Calm Calm -- 26.60 in900.8 mb - 0.00 in0.0 mm 0.04 in1.0 mm
07:35 AM 59.0°F15.0°C 56.4°F13.6°C 91% Calm Calm -- 26.59 in900.4 mb - 0.00 in0.0 mm 0.04 in1.0 mm
07:40 AM 62.0°F16.7°C 57.4°F14.1°C 85% Calm Calm 1.2 mph1.9 kmh 26.58 in900.1 mb - 0.00 in0.0 mm 0.04 in1.0 mm
07:45 AM 62.2°F16.8°C 57.6°F14.2°C 85% Calm Calm 1.2 mph1.9 kmh 26.58 in900.1 mb - 0.00 in0.0 mm 0.04 in1.0 mm
07:50 AM 64.0°F17.8°C 59.4°F15.2°C 85% Calm Calm -- 26.60 in900.8 mb - 0.00 in0.0 mm 0.04 in1.0 mm
07:55 AM 66.0°F18.9°C 58.9°F14.9°C 78% Calm Calm -- 26.59 in900.4 mb - 0.00 in0.0 mm 0.04 in1.0 mm
08:00 AM 68.0°F20.0°C 60.5°F15.8°C 77% Calm Calm -- 26.60 in900.8 mb - 0.00 in0.0 mm 0.04 in1.0 mm
08:10 AM 69.0°F20.6°C 59.6°F15.3°C 72% Calm Calm -- 26.58 in900.1 mb - 0.00 in0.0 mm 0.04 in1.0 mm
08:15 AM 72.0°F22.2°C 61.3°F16.3°C 69% Calm Calm -- 26.59 in900.4 mb - 0.00 in0.0 mm 0.04 in1.0 mm
08:20 AM 73.0°F22.8°C 60.1°F15.6°C 64% Calm Calm -- 26.59 in900.4 mb - 0.00 in0.0 mm 0.04 in1.0 mm
08:25 AM 73.0°F22.8°C 61.0°F16.1°C 66% Calm Calm -- 26.58 in900.1 mb - 0.00 in0.0 mm 0.04 in1.0 mm
08:30 AM 72.0°F22.2°C 60.0°F15.6°C 66% Calm Calm -- 26.58 in900.1 mb - 0.00 in0.0 mm 0.04 in1.0 mm
08:35 AM 72.2°F22.3°C 60.2°F15.7°C 66% Calm Calm -- 26.58 in900.1 mb - 0.00 in0.0 mm 0.04 in1.0 mm
08:40 AM 73.0°F22.8°C 60.5°F15.8°C 65% Calm Calm -- 26.58 in900.1 mb - 0.00 in0.0 mm 0.04 in1.0 mm
08:45 AM 71.0°F21.7°C 58.6°F14.8°C 65% Calm Calm -- 26.59 in900.4 mb - 0.00 in0.0 mm 0.04 in1.0 mm
08:50 AM 71.0°F21.7°C 58.6°F14.8°C 65% Calm Calm -- 26.59 in900.4 mb - 0.00 in0.0 mm 0.04 in1.0 mm
08:55 AM 69.0°F20.6°C 60.4°F15.8°C 74% Calm Calm 1.2 mph1.9 kmh 26.58 in900.1 mb - 0.00 in0.0 mm 0.04 in1.0 mm
09:00 AM 67.3°F19.6°C 58.3°F14.6°C 73% Calm Calm 1.2 mph1.9 kmh 26.59 in900.4 mb - 0.00 in0.0 mm 0.04 in1.0 mm
09:10 AM 68.0°F20.0°C 57.0°F13.9°C 68% 1.2 mph SW1.9 kmh SW 1.2 mph1.9 kmh 26.59 in900.4 mb - 0.00 in0.0 mm 0.04 in1.0 mm
09:15 AM 70.0°F21.1°C 55.9°F13.3°C 61% 1.2 mph SSE1.9 kmh SSE 1.2 mph1.9 kmh 26.59 in900.4 mb - 0.00 in0.0 mm 0.04 in1.0 mm
09:20 AM 71.0°F21.7°C 56.9°F13.8°C 61% Calm Calm -- 26.58 in900.1 mb - 0.00 in0.0 mm 0.04 in1.0 mm
09:25 AM 70.0°F21.1°C 56.8°F13.8°C 63% Calm Calm -- 26.59 in900.4 mb - 0.00 in0.0 mm 0.04 in1.0 mm
09:30 AM 70.6°F21.4°C 57.0°F13.9°C 62% Calm Calm -- 26.58 in900.1 mb - 0.00 in0.0 mm 0.04 in1.0 mm
09:35 AM 71.0°F21.7°C 57.3°F14.1°C 62% Calm Calm -- 26.58 in900.1 mb - 0.00 in0.0 mm 0.04 in1.0 mm
09:40 AM 70.0°F21.1°C 56.4°F13.6°C 62% Calm Calm 1.2 mph1.9 kmh 26.58 in900.1 mb - 0.00 in0.0 mm 0.04 in1.0 mm
09:45 AM 69.0°F20.6°C 56.7°F13.7°C 65% Calm Calm 1.2 mph1.9 kmh 26.58 in900.1 mb - 0.00 in0.0 mm 0.04 in1.0 mm
09:50 AM 69.0°F20.6°C 57.2°F14.0°C 66% Calm Calm 1.2 mph1.9 kmh 26.58 in900.1 mb - 0.00 in0.0 mm 0.04 in1.0 mm
09:55 AM 69.0°F20.6°C 57.2°F14.0°C 66% Calm Calm 1.2 mph1.9 kmh 26.58 in900.1 mb - 0.00 in0.0 mm 0.04 in1.0 mm
10:00 AM 69.0°F20.6°C 56.7°F13.7°C 65% Calm Calm -- 26.58 in900.1 mb - 0.00 in0.0 mm 0.04 in1.0 mm
10:10 AM 69.0°F20.6°C 57.2°F14.0°C 66% 1.2 mph SSW1.9 kmh SSW 1.2 mph1.9 kmh 26.58 in900.1 mb - 0.00 in0.0 mm 0.04 in1.0 mm
10:15 AM 69.0°F20.6°C 57.6°F14.2°C 67% 1.2 mph WSW1.9 kmh WSW 2.3 mph3.7 kmh 26.58 in900.1 mb - 0.00 in0.0 mm 0.04 in1.0 mm
10:20 AM 69.0°F20.6°C 58.0°F14.4°C 68% 2.3 mph WSW3.7 kmh WSW 2.3 mph3.7 kmh 26.58 in900.1 mb - 0.00 in0.0 mm 0.04 in1.0 mm
10:25 AM 69.0°F20.6°C 58.4°F14.7°C 69% 1.2 mph SSW1.9 kmh SSW 1.2 mph1.9 kmh 26.58 in900.1 mb - 0.00 in0.0 mm 0.04 in1.0 mm
10:30 AM 69.0°F20.6°C 58.8°F14.9°C 70% Calm Calm -- 26.59 in900.4 mb - 0.00 in0.0 mm 0.04 in1.0 mm
10:35 AM 70.0°F21.1°C 59.0°F15.0°C 68% 1.2 mph SSE1.9 kmh SSE 1.2 mph1.9 kmh 26.58 in900.1 mb - 0.00 in0.0 mm 0.04 in1.0 mm
10:40 AM 70.0°F21.1°C 59.0°F15.0°C 68% 1.2 mph SSE1.9 kmh SSE 2.3 mph3.7 kmh 26.58 in900.1 mb - 0.00 in0.0 mm 0.04 in1.0 mm
10:45 AM 71.0°F21.7°C 59.5°F15.3°C 67% 1.2 mph SW1.9 kmh SW 2.3 mph3.7 kmh 26.58 in900.1 mb - 0.00 in0.0 mm 0.04 in1.0 mm
10:50 AM 72.0°F22.2°C 60.4°F15.8°C 67% Calm Calm 1.2 mph1.9 kmh 26.58 in900.1 mb - 0.00 in0.0 mm 0.04 in1.0 mm
10:55 AM 72.0°F22.2°C 61.3°F16.3°C 69% 1.2 mph ESE1.9 kmh ESE 1.2 mph1.9 kmh 26.58 in900.1 mb - 0.00 in0.0 mm 0.04 in1.0 mm
11:00 AM 72.6°F22.6°C 61.0°F16.1°C 67% 1.2 mph S1.9 kmh S 1.2 mph1.9 kmh 26.57 in899.8 mb - 0.00 in0.0 mm 0.04 in1.0 mm
11:10 AM 73.0°F22.8°C 61.0°F16.1°C 66% 2.3 mph SW3.7 kmh SW 2.3 mph3.7 kmh 26.57 in899.8 mb - 0.00 in0.0 mm 0.04 in1.0 mm
11:15 AM 73.0°F22.8°C 61.4°F16.3°C 67% 1.2 mph WSW1.9 kmh WSW 2.3 mph3.7 kmh 26.58 in900.1 mb - 0.00 in0.0 mm 0.04 in1.0 mm
11:20 AM 73.0°F22.8°C 61.0°F16.1°C 66% 1.2 mph E1.9 kmh E 1.2 mph1.9 kmh 26.57 in899.8 mb - 0.00 in0.0 mm 0.04 in1.0 mm
11:25 AM 73.0°F22.8°C 61.8°F16.6°C 68% 1.2 mph ESE1.9 kmh ESE 2.3 mph3.7 kmh 26.57 in899.8 mb - 0.00 in0.0 mm 0.04 in1.0 mm
11:30 AM 73.0°F22.8°C 62.6°F17.0°C 70% 1.2 mph WSW1.9 kmh WSW 2.3 mph3.7 kmh 26.57 in899.8 mb - 0.00 in0.0 mm 0.04 in1.0 mm
11:35 AM 73.0°F22.8°C 61.4°F16.3°C 67% 1.2 mph NNE1.9 kmh NNE 1.2 mph1.9 kmh 26.57 in899.8 mb - 0.00 in0.0 mm 0.04 in1.0 mm
11:40 AM 72.0°F22.2°C 61.3°F16.3°C 69% 2.3 mph NNW3.7 kmh NNW 3.5 mph5.6 kmh 26.57 in899.8 mb - 0.00 in0.0 mm 0.04 in1.0 mm
11:45 AM 72.0°F22.2°C 60.9°F16.1°C 68% 1.2 mph WSW1.9 kmh WSW 1.2 mph1.9 kmh 26.57 in899.8 mb - 0.00 in0.0 mm 0.04 in1.0 mm
11:50 AM 73.0°F22.8°C 60.1°F15.6°C 64% 1.2 mph SW1.9 kmh SW 1.2 mph1.9 kmh 26.56 in899.4 mb - 0.00 in0.0 mm 0.04 in1.0 mm
11:55 AM 73.0°F22.8°C 60.1°F15.6°C 64% 1.2 mph SSW1.9 kmh SSW 1.2 mph1.9 kmh 26.56 in899.4 mb - 0.00 in0.0 mm 0.04 in1.0 mm
12:00 PM 73.0°F22.8°C 61.0°F16.1°C 66% 1.2 mph ENE1.9 kmh ENE 1.2 mph1.9 kmh 26.57 in899.8 mb - 0.00 in0.0 mm 0.04 in1.0 mm
12:10 PM 74.0°F23.3°C 60.6°F15.9°C 63% 1.2 mph NE1.9 kmh NE 2.3 mph3.7 kmh 26.57 in899.8 mb - 0.00 in0.0 mm 0.04 in1.0 mm
12:15 PM 73.0°F22.8°C 61.0°F16.1°C 66% 2.3 mph SSW3.7 kmh SSW 3.5 mph5.6 kmh 26.57 in899.8 mb - 0.00 in0.0 mm 0.04 in1.0 mm
12:20 PM 73.8°F23.2°C 60.4°F15.8°C 63% Calm Calm 3.5 mph5.6 kmh 26.55 in899.1 mb - 0.00 in0.0 mm 0.04 in1.0 mm
12:25 PM 74.0°F23.3°C 60.2°F15.7°C 62% Calm Calm -- 26.55 in899.1 mb - 0.00 in0.0 mm 0.04 in1.0 mm
12:30 PM 76.0°F24.4°C 61.1°F16.2°C 60% 1.2 mph E1.9 kmh E 1.2 mph1.9 kmh 26.57 in899.8 mb - 0.00 in0.0 mm 0.04 in1.0 mm
12:35 PM 74.0°F23.3°C 61.0°F16.1°C 64% 3.5 mph WSW5.6 kmh WSW 6.9 mph11.1 kmh 26.56 in899.4 mb - 0.00 in0.0 mm 0.04 in1.0 mm
12:40 PM 72.0°F22.2°C 59.2°F15.1°C 64% 1.2 mph WSW1.9 kmh WSW 2.3 mph3.7 kmh 26.56 in899.4 mb - 0.00 in0.0 mm 0.04 in1.0 mm
12:45 PM 75.0°F23.9°C 62.4°F16.9°C 65% 1.2 mph WSW1.9 kmh WSW 3.5 mph5.6 kmh 26.55 in899.1 mb - 0.00 in0.0 mm 0.04 in1.0 mm
12:50 PM 75.0°F23.9°C 62.4°F16.9°C 65% 1.2 mph WSW1.9 kmh WSW 3.5 mph5.6 kmh 26.55 in899.1 mb - 0.00 in0.0 mm 0.04 in1.0 mm
12:55 PM 75.0°F23.9°C 62.0°F16.7°C 64% 2.3 mph SW3.7 kmh SW 3.5 mph5.6 kmh 26.56 in899.4 mb - 0.00 in0.0 mm 0.04 in1.0 mm
01:00 PM 73.0°F22.8°C 60.5°F15.8°C 65% 2.3 mph SW3.7 kmh SW 3.5 mph5.6 kmh 26.55 in899.1 mb - 0.00 in0.0 mm 0.04 in1.0 mm
01:10 PM 73.0°F22.8°C 61.4°F16.3°C 67% 3.5 mph WSW5.6 kmh WSW 3.5 mph5.6 kmh 26.56 in899.4 mb - 0.00 in0.0 mm 0.04 in1.0 mm
01:15 PM 72.0°F22.2°C 60.9°F16.1°C 68% 2.3 mph E3.7 kmh E 3.5 mph5.6 kmh 26.55 in899.1 mb - 0.00 in0.0 mm 0.04 in1.0 mm
01:20 PM 72.2°F22.3°C 60.6°F15.9°C 67% 2.3 mph SE3.7 kmh SE 6.9 mph11.1 kmh 26.55 in899.1 mb - 0.00 in0.0 mm 0.04 in1.0 mm
01:25 PM 73.0°F22.8°C 60.1°F15.6°C 64% 4.6 mph SW7.4 kmh SW 6.9 mph11.1 kmh 26.55 in899.1 mb - 0.00 in0.0 mm 0.04 in1.0 mm
01:30 PM 74.0°F23.3°C 59.2°F15.1°C 60% 2.3 mph NNW3.7 kmh NNW 2.3 mph3.7 kmh 26.55 in899.1 mb - 0.00 in0.0 mm 0.04 in1.0 mm
01:35 PM 75.0°F23.9°C 60.2°F15.7°C 60% 2.3 mph ENE3.7 kmh ENE 2.3 mph3.7 kmh 26.55 in899.1 mb - 0.00 in0.0 mm 0.04 in1.0 mm
01:40 PM 74.0°F23.3°C 60.2°F15.7°C 62% 3.5 mph SW5.6 kmh SW 5.8 mph9.3 kmh 26.56 in899.4 mb - 0.00 in0.0 mm 0.04 in1.0 mm
01:45 PM 74.8°F23.8°C 60.9°F16.1°C 62% 3.5 mph WSW5.6 kmh WSW 5.8 mph9.3 kmh 26.56 in899.4 mb - 0.00 in0.0 mm 0.04 in1.0 mm
01:50 PM 75.0°F23.9°C 61.1°F16.2°C 62% 3.5 mph WSW5.6 kmh WSW 3.5 mph5.6 kmh 26.56 in899.4 mb - 0.00 in0.0 mm 0.04 in1.0 mm
01:55 PM 73.0°F22.8°C 59.2°F15.1°C 62% 3.5 mph SW5.6 kmh SW 5.8 mph9.3 kmh 26.55 in899.1 mb - 0.00 in0.0 mm 0.04 in1.0 mm
02:00 PM 75.0°F23.9°C 61.1°F16.2°C 62% 2.3 mph SE3.7 kmh SE 3.5 mph5.6 kmh 26.55 in899.1 mb - 0.00 in0.0 mm 0.04 in1.0 mm
02:10 PM 74.0°F23.3°C 60.2°F15.7°C 62% 3.5 mph WSW5.6 kmh WSW 5.8 mph9.3 kmh 26.55 in899.1 mb - 0.00 in0.0 mm 0.04 in1.0 mm
02:15 PM 73.4°F23.0°C 59.2°F15.1°C 61% 1.2 mph WSW1.9 kmh WSW 5.8 mph9.3 kmh 26.56 in899.4 mb - 0.00 in0.0 mm 0.04 in1.0 mm
02:20 PM 73.0°F22.8°C 58.8°F14.9°C 61% Calm Calm 1.2 mph1.9 kmh 26.56 in899.4 mb - 0.00 in0.0 mm 0.04 in1.0 mm
02:25 PM 74.0°F23.3°C 61.0°F16.1°C 64% 1.2 mph W1.9 kmh W 1.2 mph1.9 kmh 26.55 in899.1 mb - 0.00 in0.0 mm 0.04 in1.0 mm
02:30 PM 75.0°F23.9°C 61.1°F16.2°C 62% 2.3 mph ENE3.7 kmh ENE 2.3 mph3.7 kmh 26.55 in899.1 mb - 0.00 in0.0 mm 0.04 in1.0 mm
02:35 PM 75.0°F23.9°C 60.2°F15.7°C 60% 2.3 mph W3.7 kmh W 3.5 mph5.6 kmh 26.55 in899.1 mb - 0.00 in0.0 mm 0.04 in1.0 mm
02:40 PM 75.0°F23.9°C 61.1°F16.2°C 62% 2.3 mph WSW3.7 kmh WSW 2.3 mph3.7 kmh 26.55 in899.1 mb - 0.00 in0.0 mm 0.04 in1.0 mm
02:45 PM 75.3°F24.1°C 60.9°F16.1°C 61% 2.3 mph WSW3.7 kmh WSW 3.5 mph5.6 kmh 26.55 in899.1 mb - 0.00 in0.0 mm 0.04 in1.0 mm
02:50 PM 76.0°F24.4°C 61.1°F16.2°C 60% 3.5 mph SW5.6 kmh SW 3.5 mph5.6 kmh 26.55 in899.1 mb - 0.00 in0.0 mm 0.04 in1.0 mm
02:55 PM 75.0°F23.9°C 60.6°F15.9°C 61% 2.3 mph WSW3.7 kmh WSW 2.3 mph3.7 kmh 26.55 in899.1 mb - 0.00 in0.0 mm 0.04 in1.0 mm
03:00 PM 76.0°F24.4°C 60.2°F15.7°C 58% 1.2 mph E1.9 kmh E 1.2 mph1.9 kmh 26.55 in899.1 mb - 0.00 in0.0 mm 0.04 in1.0 mm
03:10 PM 77.0°F25.0°C 62.0°F16.7°C 60% 3.5 mph S5.6 kmh S 3.5 mph5.6 kmh 26.55 in899.1 mb - 0.00 in0.0 mm 0.04 in1.0 mm
03:15 PM 75.0°F23.9°C 60.2°F15.7°C 60% 3.5 mph S5.6 kmh S 3.5 mph5.6 kmh 26.55 in899.1 mb - 0.00 in0.0 mm 0.04 in1.0 mm
03:20 PM 75.0°F23.9°C 60.6°F15.9°C 61% 1.2 mph SE1.9 kmh SE 2.3 mph3.7 kmh 26.55 in899.1 mb - 0.00 in0.0 mm 0.04 in1.0 mm
03:25 PM 76.0°F24.4°C 60.6°F15.9°C 59% 2.3 mph SW3.7 kmh SW 3.5 mph5.6 kmh 26.55 in899.1 mb - 0.00 in0.0 mm 0.04 in1.0 mm
03:30 PM 75.0°F23.9°C 60.6°F15.9°C 61% 1.2 mph SE1.9 kmh SE 1.2 mph1.9 kmh 26.55 in899.1 mb - 0.00 in0.0 mm 0.04 in1.0 mm
03:35 PM 75.0°F23.9°C 62.9°F17.2°C 66% Calm Calm 1.2 mph1.9 kmh 26.54 in898.7 mb - 0.00 in0.0 mm 0.04 in1.0 mm
03:40 PM 74.4°F23.6°C 61.4°F16.3°C 64% 1.2 mph WSW1.9 kmh WSW 3.5 mph5.6 kmh 26.55 in899.1 mb - 0.00 in0.0 mm 0.04 in1.0 mm
03:45 PM 74.0°F23.3°C 60.6°F15.9°C 63% 2.3 mph WSW3.7 kmh WSW 3.5 mph5.6 kmh 26.55 in899.1 mb - 0.00 in0.0 mm 0.04 in1.0 mm
03:50 PM 72.0°F22.2°C 60.0°F15.6°C 66% 2.3 mph SE3.7 kmh SE 2.3 mph3.7 kmh 26.54 in898.7 mb - 0.00 in0.0 mm 0.04 in1.0 mm
03:55 PM 73.0°F22.8°C 58.8°F14.9°C 61% 1.2 mph ESE1.9 kmh ESE 1.2 mph1.9 kmh 26.54 in898.7 mb - 0.00 in0.0 mm 0.04 in1.0 mm
04:00 PM 72.0°F22.2°C 59.6°F15.3°C 65% 1.2 mph SE1.9 kmh SE 2.3 mph3.7 kmh 26.54 in898.7 mb - 0.00 in0.0 mm 0.04 in1.0 mm
04:10 PM 73.0°F22.8°C 58.8°F14.9°C 61% 1.2 mph E1.9 kmh E 1.2 mph1.9 kmh 26.54 in898.7 mb - 0.00 in0.0 mm 0.04 in1.0 mm
04:15 PM 74.0°F23.3°C 58.8°F14.9°C 59% 1.2 mph ENE1.9 kmh ENE 2.3 mph3.7 kmh 26.54 in898.7 mb - 0.00 in0.0 mm 0.04 in1.0 mm
04:20 PM 75.0°F23.9°C 60.2°F15.7°C 60% 2.3 mph WSW3.7 kmh WSW 2.3 mph3.7 kmh 26.54 in898.7 mb - 0.00 in0.0 mm 0.04 in1.0 mm
04:25 PM 73.0°F22.8°C 59.2°F15.1°C 62% Calm Calm -- 26.54 in898.7 mb - 0.00 in0.0 mm 0.04 in1.0 mm
04:30 PM 73.0°F22.8°C 59.2°F15.1°C 62% Calm Calm -- 26.54 in898.7 mb - 0.00 in0.0 mm 0.04 in1.0 mm
04:35 PM 73.0°F22.8°C 58.8°F14.9°C 61% Calm Calm -- 26.53 in898.4 mb - 0.00 in0.0 mm 0.04 in1.0 mm
04:40 PM 72.0°F22.2°C 59.6°F15.3°C 65% Calm Calm 1.2 mph1.9 kmh 26.53 in898.4 mb - 0.00 in0.0 mm 0.04 in1.0 mm
04:45 PM 72.0°F22.2°C 61.3°F16.3°C 69% Calm Calm -- 26.52 in898.1 mb - 0.00 in0.0 mm 0.04 in1.0 mm
04:50 PM 71.0°F21.7°C 58.6°F14.8°C 65% Calm Calm -- 26.53 in898.4 mb - 0.00 in0.0 mm 0.04 in1.0 mm
04:55 PM 71.0°F21.7°C 58.6°F14.8°C 65% Calm Calm -- 26.53 in898.4 mb - 0.00 in0.0 mm 0.04 in1.0 mm
05:00 PM 71.0°F21.7°C 59.1°F15.1°C 66% Calm Calm -- 26.52 in898.1 mb - 0.00 in0.0 mm 0.04 in1.0 mm
05:10 PM 75.0°F23.9°C 62.9°F17.2°C 66% Calm Calm 1.2 mph1.9 kmh 26.54 in898.7 mb - 0.00 in0.0 mm 0.04 in1.0 mm
05:15 PM 71.0°F21.7°C 58.6°F14.8°C 65% 2.3 mph SE3.7 kmh SE 2.3 mph3.7 kmh 26.52 in898.1 mb - 0.00 in0.0 mm 0.04 in1.0 mm
05:20 PM 71.1°F21.7°C 58.8°F14.9°C 65% 1.2 mph SE1.9 kmh SE 2.3 mph3.7 kmh 26.52 in898.1 mb - 0.00 in0.0 mm 0.04 in1.0 mm
05:25 PM 72.0°F22.2°C 59.6°F15.3°C 65% Calm Calm 1.2 mph1.9 kmh 26.53 in898.4 mb - 0.00 in0.0 mm 0.04 in1.0 mm
05:30 PM 70.0°F21.1°C 59.0°F15.0°C 68% Calm Calm -- 26.52 in898.1 mb - 0.00 in0.0 mm 0.04 in1.0 mm
05:35 PM 70.0°F21.1°C 59.0°F15.0°C 68% 1.2 mph S1.9 kmh S 1.2 mph1.9 kmh 26.52 in898.1 mb - 0.00 in0.0 mm 0.04 in1.0 mm
05:40 PM 70.0°F21.1°C 59.0°F15.0°C 68% Calm Calm -- 26.52 in898.1 mb - 0.00 in0.0 mm 0.04 in1.0 mm
05:45 PM 70.0°F21.1°C 58.5°F14.7°C 67% Calm Calm -- 26.52 in898.1 mb - 0.00 in0.0 mm 0.04 in1.0 mm
05:50 PM 70.0°F21.1°C 58.5°F14.7°C 67% Calm Calm -- 26.52 in898.1 mb - 0.00 in0.0 mm 0.04 in1.0 mm
05:55 PM 70.0°F21.1°C 59.0°F15.0°C 68% Calm Calm -- 26.52 in898.1 mb - 0.00 in0.0 mm 0.04 in1.0 mm
06:00 PM 70.0°F21.1°C 59.4°F15.2°C 69% Calm Calm -- 26.52 in898.1 mb - 0.00 in0.0 mm 0.04 in1.0 mm
06:10 PM 69.0°F20.6°C 58.4°F14.7°C 69% Calm Calm -- 26.53 in898.4 mb - 0.00 in0.0 mm 0.04 in1.0 mm
06:15 PM 69.0°F20.6°C 58.8°F14.9°C 70% Calm Calm -- 26.53 in898.4 mb - 0.00 in0.0 mm 0.04 in1.0 mm
06:20 PM 69.0°F20.6°C 59.6°F15.3°C 72% Calm Calm -- 26.53 in898.4 mb - 0.00 in0.0 mm 0.04 in1.0 mm
06:25 PM 68.0°F20.0°C 59.0°F15.0°C 73% Calm Calm -- 26.52 in898.1 mb - 0.00 in0.0 mm 0.04 in1.0 mm
06:30 PM 68.0°F20.0°C 59.4°F15.2°C 74% Calm Calm -- 26.52 in898.1 mb - 0.00 in0.0 mm 0.04 in1.0 mm
06:35 PM 67.0°F19.4°C 58.1°F14.5°C 73% Calm Calm 1.2 mph1.9 kmh 26.52 in898.1 mb - 0.00 in0.0 mm 0.04 in1.0 mm
06:40 PM 66.0°F18.9°C 57.1°F13.9°C 73% Calm Calm -- 26.52 in898.1 mb - 0.00 in0.0 mm 0.04 in1.0 mm
06:45 PM 66.0°F18.9°C 57.1°F13.9°C 73% Calm Calm -- 26.52 in898.1 mb - 0.00 in0.0 mm 0.04 in1.0 mm
06:50 PM 66.0°F18.9°C 57.8°F14.3°C 75% Calm Calm -- 26.53 in898.4 mb - 0.00 in0.0 mm 0.04 in1.0 mm
06:55 PM 65.0°F18.3°C 55.4°F13.0°C 71% Calm Calm -- 26.53 in898.4 mb - 0.00 in0.0 mm 0.04 in1.0 mm
07:00 PM 66.0°F18.9°C 56.3°F13.5°C 71% Calm Calm -- 26.53 in898.4 mb - 0.00 in0.0 mm 0.04 in1.0 mm
07:10 PM 65.1°F18.4°C 56.2°F13.4°C 73% Calm Calm -- 26.54 in898.7 mb - 0.00 in0.0 mm 0.04 in1.0 mm
07:15 PM 65.0°F18.3°C 56.1°F13.4°C 73% Calm Calm -- 26.54 in898.7 mb - 0.00 in0.0 mm 0.04 in1.0 mm
07:20 PM 65.0°F18.3°C 56.1°F13.4°C 73% Calm Calm -- 26.54 in898.7 mb - 0.00 in0.0 mm 0.04 in1.0 mm
07:25 PM 64.0°F17.8°C 56.3°F13.5°C 76% Calm Calm -- 26.54 in898.7 mb - 0.00 in0.0 mm 0.04 in1.0 mm
07:30 PM 63.0°F17.2°C 55.3°F12.9°C 76% Calm Calm -- 26.54 in898.7 mb - 0.00 in0.0 mm 0.04 in1.0 mm
07:35 PM 64.0°F17.8°C 56.3°F13.5°C 76% Calm Calm -- 26.54 in898.7 mb - 0.00 in0.0 mm 0.04 in1.0 mm
07:40 PM 63.3°F17.4°C 55.6°F13.1°C 76% Calm Calm -- 26.54 in898.7 mb - 0.00 in0.0 mm 0.04 in1.0 mm
07:45 PM 63.0°F17.2°C 55.3°F12.9°C 76% Calm Calm -- 26.54 in898.7 mb - 0.00 in0.0 mm 0.04 in1.0 mm
07:50 PM 62.0°F16.7°C 54.0°F12.2°C 75% Calm Calm -- 26.54 in898.7 mb - 0.00 in0.0 mm 0.04 in1.0 mm
07:55 PM 62.0°F16.7°C 54.3°F12.4°C 76% Calm Calm -- 26.55 in899.1 mb - 0.00 in0.0 mm 0.04 in1.0 mm
08:00 PM 62.0°F16.7°C 52.9°F11.6°C 72% Calm Calm 1.2 mph1.9 kmh 26.54 in898.7 mb - 0.00 in0.0 mm 0.04 in1.0 mm
08:10 PM 61.5°F16.4°C 53.9°F12.2°C 76% Calm Calm -- 26.55 in899.1 mb - 0.00 in0.0 mm 0.04 in1.0 mm
08:15 PM 61.0°F16.1°C 54.1°F12.3°C 78% Calm Calm -- 26.56 in899.4 mb - 0.00 in0.0 mm 0.04 in1.0 mm
08:20 PM 61.0°F16.1°C 53.0°F11.7°C 75% Calm Calm -- 26.55 in899.1 mb - 0.00 in0.0 mm 0.04 in1.0 mm
08:25 PM 61.0°F16.1°C 54.4°F12.4°C 79% Calm Calm -- 26.57 in899.8 mb - 0.00 in0.0 mm 0.04 in1.0 mm
08:30 PM 60.0°F15.6°C 53.5°F11.9°C 79% Calm Calm -- 26.57 in899.8 mb - 0.00 in0.0 mm 0.04 in1.0 mm
08:35 PM 60.0°F15.6°C 52.4°F11.3°C 76% Calm Calm -- 26.57 in899.8 mb - 0.00 in0.0 mm 0.04 in1.0 mm
08:40 PM 60.0°F15.6°C 52.8°F11.6°C 77% Calm Calm -- 26.57 in899.8 mb - 0.00 in0.0 mm 0.04 in1.0 mm
08:45 PM 60.0°F15.6°C 53.5°F11.9°C 79% Calm Calm -- 26.57 in899.8 mb - 0.00 in0.0 mm 0.04 in1.0 mm
08:50 PM 60.0°F15.6°C 52.8°F11.6°C 77% Calm Calm -- 26.57 in899.8 mb - 0.00 in0.0 mm 0.04 in1.0 mm
08:55 PM 60.0°F15.6°C 53.1°F11.7°C 78% Calm Calm -- 26.57 in899.8 mb - 0.00 in0.0 mm 0.04 in1.0 mm
09:00 PM 60.0°F15.6°C 53.1°F11.7°C 78% Calm Calm -- 26.57 in899.8 mb - 0.00 in0.0 mm 0.04 in1.0 mm
09:10 PM 59.3°F15.2°C 53.1°F11.7°C 80% Calm Calm -- 26.58 in900.1 mb - 0.00 in0.0 mm 0.04 in1.0 mm
09:15 PM 59.0°F15.0°C 53.2°F11.8°C 81% Calm Calm -- 26.58 in900.1 mb - 0.00 in0.0 mm 0.04 in1.0 mm
09:20 PM 58.0°F14.4°C 53.2°F11.8°C 84% Calm Calm -- 26.57 in899.8 mb - 0.00 in0.0 mm 0.04 in1.0 mm
09:25 PM 58.0°F14.4°C 53.5°F11.9°C 85% Calm Calm -- 26.58 in900.1 mb - 0.00 in0.0 mm 0.04 in1.0 mm
09:30 PM 58.0°F14.4°C 53.5°F11.9°C 85% Calm Calm -- 26.58 in900.1 mb - 0.00 in0.0 mm 0.04 in1.0 mm
09:35 PM 58.0°F14.4°C 53.5°F11.9°C 85% Calm Calm -- 26.59 in900.4 mb - 0.00 in0.0 mm 0.04 in1.0 mm
09:40 PM 58.0°F14.4°C 53.8°F12.1°C 86% Calm Calm -- 26.58 in900.1 mb - 0.00 in0.0 mm 0.04 in1.0 mm
09:45 PM 57.6°F14.2°C 53.4°F11.9°C 86% Calm Calm -- 26.58 in900.1 mb - 0.00 in0.0 mm 0.04 in1.0 mm
09:50 PM 57.0°F13.9°C 52.9°F11.6°C 86% Calm Calm -- 26.59 in900.4 mb - 0.00 in0.0 mm 0.04 in1.0 mm
09:55 PM 59.0°F15.0°C 54.2°F12.3°C 84% Calm Calm -- 26.59 in900.4 mb - 0.00 in0.0 mm 0.04 in1.0 mm
10:00 PM 59.0°F15.0°C 54.2°F12.3°C 84% Calm Calm -- 26.59 in900.4 mb - 0.00 in0.0 mm 0.04 in1.0 mm
10:10 PM 59.0°F15.0°C 54.5°F12.5°C 85% Calm Calm -- 26.59 in900.4 mb - 0.00 in0.0 mm 0.04 in1.0 mm
10:15 PM 59.0°F15.0°C 54.8°F12.7°C 86% Calm Calm -- 26.60 in900.8 mb - 0.00 in0.0 mm 0.04 in1.0 mm
10:20 PM 58.8°F14.9°C 53.9°F12.2°C 84% Calm Calm -- 26.60 in900.8 mb - 0.00 in0.0 mm 0.04 in1.0 mm
10:25 PM 58.0°F14.4°C 51.5°F10.8°C 79% Calm Calm -- 26.60 in900.8 mb - 0.00 in0.0 mm 0.04 in1.0 mm
10:30 PM 58.0°F14.4°C 52.5°F11.4°C 82% Calm Calm -- 26.59 in900.4 mb - 0.00 in0.0 mm 0.04 in1.0 mm
10:35 PM 59.0°F15.0°C 54.2°F12.3°C 84% Calm Calm -- 26.60 in900.8 mb - 0.00 in0.0 mm 0.04 in1.0 mm
10:40 PM 58.0°F14.4°C 51.5°F10.8°C 79% Calm Calm -- 26.59 in900.4 mb - 0.00 in0.0 mm 0.04 in1.0 mm
10:45 PM 58.0°F14.4°C 53.5°F11.9°C 85% Calm Calm -- 26.60 in900.8 mb - 0.00 in0.0 mm 0.04 in1.0 mm
10:50 PM 57.2°F14.0°C 53.1°F11.7°C 86% Calm Calm -- 26.60 in900.8 mb - 0.00 in0.0 mm 0.04 in1.0 mm
10:55 PM 57.1°F13.9°C 52.9°F11.6°C 86% Calm Calm -- 26.60 in900.8 mb - 0.00 in0.0 mm 0.04 in1.0 mm
11:00 PM 58.0°F14.4°C 54.2°F12.3°C 87% Calm Calm -- 26.60 in900.8 mb - 0.00 in0.0 mm 0.10 in2.5 mm
11:10 PM 58.0°F14.4°C 53.8°F12.1°C 86% Calm Calm -- 26.61 in901.1 mb - 0.00 in0.0 mm 0.10 in2.5 mm
11:15 PM 58.0°F14.4°C 53.8°F12.1°C 86% Calm Calm -- 26.60 in900.8 mb - 0.00 in0.0 mm 0.10 in2.5 mm
11:20 PM 57.0°F13.9°C 52.2°F11.2°C 84% Calm Calm -- 26.60 in900.8 mb - 0.00 in0.0 mm 0.10 in2.5 mm
11:25 PM 57.0°F13.9°C 52.9°F11.6°C 86% Calm Calm -- 26.60 in900.8 mb - 0.00 in0.0 mm 0.10 in2.5 mm
11:30 PM 57.0°F13.9°C 52.9°F11.6°C 86% Calm Calm -- 26.60 in900.8 mb - 0.00 in0.0 mm 0.10 in2.5 mm
11:35 PM 57.0°F13.9°C 53.2°F11.8°C 87% Calm Calm -- 26.61 in901.1 mb - 0.00 in0.0 mm 0.10 in2.5 mm
11:40 PM 57.0°F13.9°C 53.2°F11.8°C 87% Calm Calm -- 26.61 in901.1 mb - 0.00 in0.0 mm 0.10 in2.5 mm
11:45 PM 57.0°F13.9°C 52.5°F11.4°C 85% Calm Calm -- 26.61 in901.1 mb - 0.00 in0.0 mm 0.10 in2.5 mm
11:50 PM 58.0°F14.4°C 52.9°F11.6°C 83% 1.2 mph NE1.9 kmh NE 1.2 mph1.9 kmh 26.62 in901.5 mb - 0.00 in0.0 mm 0.10 in2.5 mm
11:55 PM 59.0°F15.0°C 53.2°F11.8°C 81% 1.2 mph SE1.9 kmh SE 1.2 mph1.9 kmh 26.62 in901.5 mb - 0.00 in0.0 mm 0.10 in2.5 mm